createdAt,value
2019-04-03T00:00:54.997Z,2.29
2019-04-03T00:03:26.499Z,2.21
2019-04-03T00:05:58.369Z,2.22
2019-04-03T00:08:29.925Z,2.20
2019-04-03T00:11:01.581Z,2.18
2019-04-03T00:13:32.934Z,2.21
2019-04-03T00:16:04.490Z,2.24
2019-04-03T00:18:36.039Z,2.22
2019-04-03T00:21:07.506Z,2.16
2019-04-03T00:23:39.151Z,2.17
2019-04-03T00:26:10.809Z,2.18
2019-04-03T00:28:42.368Z,2.22
2019-04-03T00:31:13.638Z,2.21
2019-04-03T00:33:45.280Z,2.20
2019-04-03T00:36:16.833Z,2.20
2019-04-03T00:38:48.382Z,2.11
2019-04-03T00:41:19.753Z,2.11
2019-04-03T00:43:51.401Z,2.07
2019-04-03T00:46:24.469Z,2.00
2019-04-03T00:48:56.293Z,2.00
2019-04-03T00:51:28.107Z,1.97
2019-04-03T00:53:59.758Z,1.89
2019-04-03T00:56:31.216Z,1.87
2019-04-03T00:59:02.878Z,1.79
2019-04-03T01:01:34.436Z,1.82
2019-04-03T01:04:05.866Z,1.83
2019-04-03T01:06:37.424Z,1.75
2019-04-03T01:09:09.091Z,1.71
2019-04-03T01:11:40.987Z,1.69
2019-04-03T01:14:12.310Z,1.62
2019-04-03T01:16:43.873Z,1.58
2019-04-03T01:19:15.626Z,1.52
2019-04-03T01:21:47.488Z,1.51
2019-04-03T01:24:20.271Z,1.48
2019-04-03T01:26:51.931Z,1.49
2019-04-03T01:29:23.349Z,1.45
2019-04-03T01:31:55.144Z,1.40
2019-04-03T01:34:27.012Z,1.42
2019-04-03T01:36:58.565Z,1.42
2019-04-03T01:39:30.202Z,1.41
2019-04-03T01:42:01.878Z,1.38
2019-04-03T01:44:34.359Z,1.38
2019-04-03T01:47:05.834Z,1.34
2019-04-03T01:49:37.672Z,1.34
2019-04-03T01:52:09.536Z,1.33
2019-04-03T01:54:40.978Z,1.26
2019-04-03T01:57:12.525Z,1.24
2019-04-03T01:59:44.198Z,1.23
2019-04-03T02:02:15.740Z,1.19
2019-04-03T02:04:47.570Z,1.16
2019-04-03T02:07:19.173Z,1.13
2019-04-03T02:09:50.846Z,1.04
2019-04-03T02:12:22.503Z,0.98
2019-04-03T02:14:54.225Z,0.89
2019-04-03T02:17:25.807Z,0.83
2019-04-03T02:19:57.346Z,0.78
2019-04-03T02:22:29.576Z,0.79
2019-04-03T02:25:02.195Z,0.68
2019-04-03T02:27:34.979Z,0.64
2019-04-03T02:30:12.305Z,0.54
2019-04-03T02:32:42.547Z,0.46
2019-04-03T02:35:14.075Z,0.48
2019-04-03T02:37:48.716Z,0.42
2019-04-03T02:40:18.969Z,0.37
2019-04-03T02:42:50.879Z,0.31
2019-04-03T02:45:23.994Z,0.25
2019-04-03T02:47:55.438Z,0.32
2019-04-03T02:50:26.976Z,0.17
2019-04-03T02:52:59.233Z,0.17
2019-04-03T02:55:32.181Z,0.22
2019-04-03T02:58:05.017Z,0.12
2019-04-03T03:00:36.844Z,0.10
2019-04-03T03:03:08.434Z,0.07
2019-04-03T03:05:40.046Z,0.06
2019-04-03T03:08:11.857Z,0.06
2019-04-03T03:10:43.500Z,0.07
2019-04-03T03:13:15.060Z,0.13
2019-04-03T03:15:46.714Z,0.17
2019-04-03T03:18:18.483Z,0.22
2019-04-03T03:20:50.135Z,0.27
2019-04-03T03:23:23.417Z,0.31
2019-04-03T03:25:55.000Z,0.34
2019-04-03T03:28:26.855Z,0.40
2019-04-03T03:31:03.656Z,0.43
2019-04-03T03:33:36.461Z,0.46
2019-04-03T03:36:05.326Z,0.52
2019-04-03T03:38:39.391Z,0.58
2019-04-03T03:41:10.992Z,0.60
2019-04-03T03:43:42.976Z,0.62
2019-04-03T03:46:14.686Z,0.66
2019-04-03T03:48:46.464Z,0.72
2019-04-03T03:51:19.147Z,0.81
2019-04-03T03:53:50.869Z,0.84
2019-04-03T03:56:22.977Z,0.82
2019-04-03T03:58:54.734Z,0.90
2019-04-03T04:01:28.546Z,0.98
2019-04-03T04:04:00.055Z,1.05
2019-04-03T04:06:35.057Z,1.13
2019-04-03T04:09:07.075Z,1.21
2019-04-03T04:11:38.653Z,1.32
2019-04-03T04:14:10.311Z,1.42
2019-04-03T04:16:42.068Z,1.41
2019-04-03T04:19:13.729Z,1.51
2019-04-03T04:21:45.398Z,1.56
2019-04-03T04:24:17.753Z,1.66
2019-04-03T04:26:50.246Z,1.73
2019-04-03T04:29:22.060Z,1.82
2019-04-03T04:31:53.778Z,1.99
2019-04-03T04:34:25.408Z,2.17
2019-04-03T04:36:57.067Z,2.28
2019-04-03T04:39:29.297Z,2.40
2019-04-03T04:42:03.364Z,2.48
2019-04-03T04:44:33.803Z,2.73
2019-04-03T04:47:05.546Z,2.92
2019-04-03T04:49:37.097Z,3.01
2019-04-03T04:52:08.958Z,3.19
2019-04-03T04:54:42.811Z,3.37
2019-04-03T04:57:13.553Z,3.54
2019-04-03T04:59:45.588Z,3.90
2019-04-03T05:02:17.824Z,4.29
2019-04-03T05:04:50.211Z,4.49
2019-04-03T05:07:21.644Z,4.78
2019-04-03T05:09:53.210Z,5.00
2019-04-03T05:12:24.776Z,5.15
2019-04-03T05:14:56.508Z,5.31
2019-04-03T05:17:28.289Z,5.49
2019-04-03T05:19:59.528Z,5.67
2019-04-03T05:22:31.525Z,5.85
2019-04-03T05:25:03.169Z,6.04
2019-04-03T05:27:34.821Z,6.24
2019-04-03T05:30:07.273Z,6.29
2019-04-03T05:32:39.334Z,6.34
2019-04-03T05:35:14.580Z,6.48
2019-04-03T05:37:44.967Z,6.71
2019-04-03T05:40:16.210Z,6.65
2019-04-03T05:42:47.533Z,6.68
2019-04-03T05:45:20.238Z,6.83
2019-04-03T05:47:52.168Z,6.72
2019-04-03T05:50:26.368Z,6.80
2019-04-03T05:52:57.649Z,6.90
2019-04-03T05:55:29.104Z,7.08
2019-04-03T05:58:00.456Z,7.17
2019-04-03T06:00:32.110Z,7.14
2019-04-03T06:03:03.570Z,7.11
2019-04-03T06:05:35.115Z,7.17
2019-04-03T06:08:06.675Z,7.10
2019-04-03T06:10:38.074Z,7.03
2019-04-03T06:13:10.018Z,7.18
2019-04-03T06:15:41.341Z,7.14
2019-04-03T06:18:12.891Z,7.22
2019-04-03T06:20:45.356Z,7.27
2019-04-03T06:23:16.913Z,7.16
2019-04-03T06:25:48.553Z,7.21
2019-04-03T06:28:20.139Z,7.49
2019-04-03T06:30:51.640Z,7.42
2019-04-03T06:33:23.157Z,7.45
2019-04-03T06:35:54.808Z,7.51
2019-04-03T06:38:26.153Z,7.37
2019-04-03T06:40:57.804Z,7.46
2019-04-03T06:43:30.579Z,7.50
2019-04-03T06:46:02.060Z,7.59
2019-04-03T06:48:34.582Z,7.63
2019-04-03T06:51:06.390Z,7.68
2019-04-03T06:53:38.085Z,7.47
2019-04-03T06:56:09.530Z,7.67
2019-04-03T06:58:43.811Z,7.72
2019-04-03T07:01:14.251Z,7.76
2019-04-03T07:03:45.896Z,7.92
2019-04-03T07:06:17.968Z,7.93
2019-04-03T07:08:49.232Z,7.89
2019-04-03T07:11:23.678Z,7.80
2019-04-03T07:13:54.475Z,7.87
2019-04-03T07:16:26.801Z,7.97
2019-04-03T07:18:59.334Z,8.04
2019-04-03T07:21:31.043Z,8.10
2019-04-03T07:24:02.632Z,8.10
2019-04-03T07:26:35.702Z,8.18
2019-04-03T07:29:07.680Z,8.45
2019-04-03T07:31:39.878Z,8.49
2019-04-03T07:34:12.449Z,8.45
2019-04-03T07:36:45.639Z,8.50
2019-04-03T07:39:19.093Z,8.57
2019-04-03T07:41:53.255Z,8.31
2019-04-03T07:44:23.277Z,8.43
2019-04-03T07:46:55.661Z,8.19
2019-04-03T07:49:28.032Z,8.26
2019-04-03T07:51:59.493Z,8.42
2019-04-03T07:54:31.027Z,8.83
2019-04-03T07:57:02.697Z,8.70
2019-04-03T07:59:35.023Z,8.66
2019-04-03T08:02:06.543Z,8.56
2019-04-03T08:04:38.950Z,8.54
2019-04-03T08:07:10.350Z,8.46
2019-04-03T08:09:41.894Z,8.55
2019-04-03T08:12:13.496Z,8.63
2019-04-03T08:14:45.126Z,8.61
2019-04-03T08:17:19.339Z,8.69
2019-04-03T08:19:50.393Z,8.83
2019-04-03T08:22:22.122Z,8.86
2019-04-03T08:24:54.019Z,8.89
2019-04-03T08:27:25.773Z,8.75
2019-04-03T08:29:57.111Z,8.78
2019-04-03T08:32:28.775Z,8.87
2019-04-03T08:35:02.231Z,9.01
2019-04-03T08:37:33.302Z,9.00
2019-04-03T08:40:05.867Z,9.11
2019-04-03T08:42:37.376Z,8.84
2019-04-03T08:45:10.333Z,9.06
2019-04-03T08:47:44.525Z,8.97
2019-04-03T08:50:14.940Z,8.84
2019-04-03T08:52:46.731Z,8.89
2019-04-03T08:55:18.095Z,9.02
2019-04-03T08:57:52.089Z,9.25
2019-04-03T09:00:22.941Z,9.19
2019-04-03T09:02:54.644Z,9.15
2019-04-03T09:05:26.207Z,9.42
2019-04-03T09:07:57.824Z,9.10
2019-04-03T09:10:31.576Z,8.98
2019-04-03T09:13:15.337Z,8.92
2019-04-03T09:15:35.630Z,9.02
2019-04-03T09:18:07.713Z,9.06
2019-04-03T09:20:40.932Z,8.95
2019-04-03T09:23:13.243Z,8.93
2019-04-03T09:25:45.007Z,8.75
2019-04-03T09:28:17.405Z,8.75
2019-04-03T09:30:48.985Z,8.57
2019-04-03T09:33:20.541Z,8.59
2019-04-03T09:35:52.132Z,8.98
2019-04-03T09:38:23.768Z,9.16
2019-04-03T09:40:57.859Z,9.39
2019-04-03T09:43:29.319Z,9.65
2019-04-03T09:46:01.296Z,9.54
2019-04-03T09:48:32.768Z,9.44
2019-04-03T09:51:04.391Z,9.60
2019-04-03T09:53:36.047Z,9.47
2019-04-03T09:56:08.505Z,9.38
2019-04-03T09:58:40.180Z,9.27
2019-04-03T10:01:15.702Z,9.57
2019-04-03T10:03:45.749Z,9.65
2019-04-03T10:06:17.301Z,9.81
2019-04-03T10:08:49.213Z,9.85
2019-04-03T10:11:20.884Z,9.89
2019-04-03T10:13:52.691Z,9.83
2019-04-03T10:16:24.230Z,9.82
2019-04-03T10:18:55.785Z,9.91
2019-04-03T10:21:27.459Z,9.91
2019-04-03T10:23:59.987Z,9.78
2019-04-03T10:26:32.103Z,9.67
2019-04-03T10:29:03.501Z,9.47
2019-04-03T10:31:36.241Z,9.55
2019-04-03T10:34:07.790Z,9.63
2019-04-03T10:36:40.156Z,9.83
2019-04-03T10:39:13.872Z,9.88
2019-04-03T10:41:45.143Z,9.95
2019-04-03T10:44:16.581Z,9.83
2019-04-03T10:46:49.954Z,9.63
2019-04-03T10:49:21.150Z,9.64
2019-04-03T10:51:53.486Z,9.84
2019-04-03T10:54:25.469Z,9.88
2019-04-03T10:56:57.113Z,10.03
2019-04-03T10:59:28.569Z,9.87
2019-04-03T11:02:00.327Z,10.10
2019-04-03T11:04:31.970Z,10.20
2019-04-03T11:07:03.646Z,10.23
2019-04-03T11:09:35.397Z,10.45
2019-04-03T11:12:09.721Z,10.30
2019-04-03T11:14:40.511Z,10.37
2019-04-03T11:17:12.111Z,10.35
2019-04-03T11:19:44.358Z,10.33
2019-04-03T11:22:16.793Z,10.39
2019-04-03T11:24:48.650Z,10.48
2019-04-03T11:27:22.969Z,10.72
2019-04-03T11:29:53.876Z,10.81
2019-04-03T11:32:25.577Z,10.69
2019-04-03T11:34:57.421Z,10.74
2019-04-03T11:37:31.890Z,10.85
2019-04-03T11:40:05.767Z,10.71
2019-04-03T11:42:37.444Z,10.44
2019-04-03T11:45:09.253Z,10.43
2019-04-03T11:47:40.706Z,10.65
2019-04-03T11:50:12.405Z,10.74
2019-04-03T11:52:44.638Z,10.58
2019-04-03T11:55:16.098Z,10.66
2019-04-03T11:57:49.344Z,10.79
2019-04-03T12:00:28.101Z,10.74
2019-04-03T12:03:00.203Z,10.64
2019-04-03T12:05:31.564Z,10.40
2019-04-03T12:08:03.284Z,10.30
2019-04-03T12:10:35.603Z,10.40
2019-04-03T12:13:07.094Z,10.49
2019-04-03T12:15:39.001Z,10.48
2019-04-03T12:18:10.820Z,10.61
2019-04-03T12:20:44.789Z,10.58
2019-04-03T12:23:16.031Z,10.71
2019-04-03T12:25:47.996Z,11.05
2019-04-03T12:28:20.022Z,11.05
2019-04-03T12:30:51.496Z,11.07
2019-04-03T12:33:23.319Z,11.09
2019-04-03T12:35:55.188Z,11.04
2019-04-03T12:38:26.959Z,11.11
2019-04-03T12:40:58.436Z,11.19
2019-04-03T12:43:30.608Z,10.99
2019-04-03T12:46:03.140Z,10.98
2019-04-03T12:48:35.389Z,10.87
2019-04-03T12:51:06.812Z,10.74
2019-04-03T12:53:38.330Z,10.58
2019-04-03T12:56:10.208Z,10.66
2019-04-03T12:58:42.013Z,10.82
2019-04-03T13:01:15.312Z,10.69
2019-04-03T13:03:47.278Z,10.45
2019-04-03T13:06:19.170Z,10.49
2019-04-03T13:08:50.649Z,10.31
2019-04-03T13:11:22.397Z,10.25
2019-04-03T13:13:54.271Z,10.26
2019-04-03T13:16:25.906Z,10.25
2019-04-03T13:18:57.672Z,10.22
2019-04-03T13:21:29.693Z,10.39
2019-04-03T13:24:01.203Z,10.58
2019-04-03T13:26:32.963Z,10.71
2019-04-03T13:29:06.976Z,10.76
2019-04-03T13:31:37.804Z,10.51
2019-04-03T13:34:11.385Z,10.49
2019-04-03T13:36:43.189Z,10.58
2019-04-03T13:39:14.627Z,10.67
2019-04-03T13:41:47.655Z,10.61
2019-04-03T13:44:19.275Z,10.36
2019-04-03T13:46:52.739Z,10.33
2019-04-03T13:49:24.691Z,10.28
2019-04-03T13:52:01.700Z,10.37
2019-04-03T13:54:29.332Z,10.38
2019-04-03T13:57:01.044Z,10.56
2019-04-03T13:59:32.448Z,10.68
2019-04-03T14:02:04.367Z,10.79
2019-04-03T14:04:36.220Z,10.82
2019-04-03T14:07:09.357Z,10.63
2019-04-03T14:09:41.890Z,10.59
2019-04-03T14:12:14.218Z,10.49
2019-04-03T14:14:47.892Z,10.36
2019-04-03T14:17:19.532Z,10.31
2019-04-03T14:19:52.381Z,10.37
2019-04-03T14:22:24.862Z,10.48
2019-04-03T14:24:56.686Z,10.54
2019-04-03T14:27:31.011Z,10.58
2019-04-03T14:30:01.438Z,10.59
2019-04-03T14:32:33.050Z,10.69
2019-04-03T14:35:31.689Z,10.75
2019-04-03T14:37:38.718Z,10.66
2019-04-03T14:40:13.675Z,10.47
2019-04-03T14:42:45.356Z,10.38
2019-04-03T14:45:16.870Z,10.42
2019-04-03T14:47:48.600Z,10.43
2019-04-03T14:50:20.260Z,10.56
2019-04-03T14:52:52.489Z,10.67
2019-04-03T14:55:24.354Z,10.51
2019-04-03T14:57:56.360Z,10.38
2019-04-03T15:00:31.008Z,10.31
2019-04-03T15:03:03.900Z,10.26
2019-04-03T15:05:34.207Z,10.22
2019-04-03T15:08:06.126Z,10.20
2019-04-03T15:10:37.859Z,10.13
2019-04-03T15:13:12.644Z,10.14
2019-04-03T15:15:43.457Z,10.03
2019-04-03T15:18:15.285Z,9.97
2019-04-03T15:20:48.933Z,9.99
2019-04-03T15:23:20.021Z,9.99
2019-04-03T15:25:53.324Z,10.00
2019-04-03T15:28:25.179Z,9.97
2019-04-03T15:30:57.138Z,9.91
2019-04-03T15:33:30.144Z,9.81
2019-04-03T15:36:03.676Z,9.70
2019-04-03T15:38:35.114Z,9.62
2019-04-03T15:41:06.871Z,9.56
2019-04-03T15:43:38.502Z,9.50
2019-04-03T15:46:10.275Z,9.48
2019-04-03T15:48:41.745Z,9.38
2019-04-03T15:51:13.480Z,9.30
2019-04-03T15:53:45.134Z,9.27
2019-04-03T15:56:16.769Z,9.19
2019-04-03T15:58:50.874Z,9.11
2019-04-03T16:01:21.867Z,9.01
2019-04-03T16:03:53.404Z,8.95
2019-04-03T16:06:25.164Z,8.85
2019-04-03T16:08:56.752Z,8.76
2019-04-03T16:11:30.333Z,8.69
2019-04-03T16:14:01.811Z,8.58
2019-04-03T16:16:34.803Z,8.49
2019-04-03T16:19:06.460Z,8.47
2019-04-03T16:21:38.326Z,8.39
2019-04-03T16:24:13.011Z,8.31
2019-04-03T16:26:43.037Z,8.24
2019-04-03T16:29:15.407Z,8.19
2019-04-03T16:31:47.167Z,8.13
2019-04-03T16:34:19.614Z,8.09
2019-04-03T16:36:51.199Z,7.89
2019-04-03T16:39:23.061Z,7.74
2019-04-03T16:41:54.768Z,7.64
2019-04-03T16:44:27.451Z,7.59
2019-04-03T16:46:58.961Z,7.48
2019-04-03T16:49:30.498Z,7.44
2019-04-03T16:52:04.253Z,7.31
2019-04-03T16:54:35.000Z,7.28
2019-04-03T16:57:06.949Z,7.20
2019-04-03T16:59:38.370Z,7.17
2019-04-03T17:02:10.019Z,7.11
2019-04-03T17:04:41.368Z,7.09
2019-04-03T17:07:13.279Z,7.00
2019-04-03T17:09:44.763Z,7.01
2019-04-03T17:12:17.330Z,6.97
2019-04-03T17:14:49.339Z,6.88
2019-04-03T17:17:21.102Z,6.73
2019-04-03T17:19:52.672Z,6.64
2019-04-03T17:22:24.528Z,6.53
2019-04-03T17:24:56.522Z,6.49
2019-04-03T17:27:30.331Z,6.32
2019-04-03T17:30:01.497Z,6.26
2019-04-03T17:32:33.187Z,6.11
2019-04-03T17:35:07.509Z,6.04
2019-04-03T17:37:39.398Z,5.94
2019-04-03T17:40:11.434Z,5.86
2019-04-03T17:42:42.897Z,5.77
2019-04-03T17:45:16.222Z,5.68
2019-04-03T17:47:50.055Z,5.60
2019-04-03T17:50:21.398Z,5.45
2019-04-03T17:52:53.020Z,5.39
2019-04-03T17:55:24.575Z,5.34
2019-04-03T17:57:56.634Z,5.28
2019-04-03T18:00:28.022Z,5.22
2019-04-03T18:03:00.776Z,5.16
2019-04-03T18:05:33.302Z,5.03
2019-04-03T18:08:04.873Z,4.97
2019-04-03T18:10:36.533Z,4.92
2019-04-03T18:13:08.325Z,4.87
2019-04-03T18:15:39.881Z,4.83
2019-04-03T18:18:11.625Z,4.78
2019-04-03T18:20:44.739Z,4.72
2019-04-03T18:23:16.893Z,4.67
2019-04-03T18:25:48.656Z,4.61
2019-04-03T18:28:21.032Z,4.55
2019-04-03T18:30:52.568Z,4.49
2019-04-03T18:33:24.447Z,4.44
2019-04-03T18:35:56.749Z,4.36
2019-04-03T18:38:28.697Z,4.30
2019-04-03T18:41:00.460Z,4.24
2019-04-03T18:43:32.114Z,4.18
2019-04-03T18:46:03.566Z,4.09
2019-04-03T18:48:35.416Z,3.98
2019-04-03T18:51:07.387Z,3.92
2019-04-03T18:53:40.615Z,3.83
2019-04-03T18:56:11.886Z,3.76
2019-04-03T18:58:44.118Z,3.67
2019-04-03T19:01:17.172Z,3.60
2019-04-03T19:03:49.148Z,3.50
2019-04-03T19:06:20.919Z,3.46
2019-04-03T19:08:52.576Z,3.35
2019-04-03T19:11:24.329Z,3.28
2019-04-03T19:13:55.986Z,3.23
2019-04-03T19:16:31.184Z,3.18
2019-04-03T19:19:07.803Z,3.11
2019-04-03T19:21:33.861Z,3.05
2019-04-03T19:24:05.592Z,2.98
2019-04-03T19:26:36.987Z,2.94
2019-04-03T19:29:08.713Z,2.91
2019-04-03T19:31:40.793Z,2.86
2019-04-03T19:34:12.423Z,2.82
2019-04-03T19:36:44.078Z,2.77
2019-04-03T19:39:15.943Z,2.73
2019-04-03T19:41:49.108Z,2.70
2019-04-03T19:44:20.879Z,2.67
2019-04-03T19:46:54.011Z,2.63
2019-04-03T19:49:28.103Z,2.56
2019-04-03T19:51:58.896Z,2.51
2019-04-03T19:54:30.582Z,2.49
2019-04-03T19:57:02.262Z,2.66
2019-04-03T19:59:34.643Z,2.70
2019-04-03T20:02:09.315Z,2.70
2019-04-03T20:04:39.436Z,2.72
2019-04-03T20:07:11.137Z,2.73
2019-04-03T20:09:42.996Z,2.74
2019-04-03T20:12:16.928Z,2.74
2019-04-03T20:14:58.060Z,2.72
2019-04-03T20:17:22.745Z,2.77
2019-04-03T20:19:55.913Z,2.77
2019-04-03T20:22:28.244Z,2.79
2019-04-03T20:25:00.768Z,2.77
2019-04-03T20:27:32.375Z,2.85
2019-04-03T20:30:07.720Z,2.96
2019-04-03T20:32:40.847Z,2.93
2019-04-03T20:35:12.797Z,2.91
2019-04-03T20:37:44.434Z,2.89
2019-04-03T20:40:16.294Z,2.84
2019-04-03T20:42:48.057Z,2.77
2019-04-03T20:45:19.814Z,2.71
2019-04-03T20:47:51.140Z,2.66
2019-04-03T20:50:22.815Z,2.59
2019-04-03T20:52:56.958Z,2.56
2019-04-03T20:55:28.185Z,2.50
2019-04-03T20:57:59.760Z,2.43
2019-04-03T21:00:31.396Z,2.35
2019-04-03T21:03:03.160Z,2.28
2019-04-03T21:05:34.938Z,2.20
2019-04-03T21:08:06.680Z,2.06
2019-04-03T21:10:38.490Z,2.04
2019-04-03T21:13:10.301Z,1.99
2019-04-03T21:15:41.860Z,1.93
2019-04-03T21:18:13.721Z,1.86
2019-04-03T21:20:45.171Z,1.86
2019-04-03T21:23:16.935Z,1.86
2019-04-03T21:25:48.382Z,1.88
2019-04-03T21:28:20.239Z,1.85
2019-04-03T21:30:53.096Z,1.84
2019-04-03T21:33:25.200Z,1.83
2019-04-03T21:35:56.552Z,1.81
2019-04-03T21:38:28.268Z,1.79
2019-04-03T21:41:00.077Z,1.79
2019-04-03T21:43:31.735Z,1.79
2019-04-03T21:46:05.036Z,1.78
2019-04-03T21:48:36.787Z,1.80
2019-04-03T21:51:08.375Z,1.80
2019-04-03T21:53:40.102Z,1.79
2019-04-03T21:56:11.578Z,1.79
2019-04-03T21:58:43.314Z,1.77
2019-04-03T22:01:17.097Z,1.77
2019-04-03T22:03:50.626Z,1.76
2019-04-03T22:06:21.587Z,1.76
2019-04-03T22:08:54.142Z,1.76
2019-04-03T22:11:26.002Z,1.75
2019-04-03T22:13:57.454Z,1.74
2019-04-03T22:16:29.140Z,1.75
2019-04-03T22:19:00.875Z,1.74
2019-04-03T22:21:33.011Z,1.75
2019-04-03T22:24:06.627Z,1.76
2019-04-03T22:26:38.830Z,1.73
2019-04-03T22:29:11.504Z,1.74
2019-04-03T22:31:43.259Z,1.76
2019-04-03T22:34:14.915Z,1.74
2019-04-03T22:36:46.365Z,1.72
2019-04-03T22:39:17.957Z,1.68
2019-04-03T22:41:49.579Z,1.63
2019-04-03T22:44:21.338Z,1.60
2019-04-03T22:46:54.135Z,1.57
2019-04-03T22:49:27.010Z,1.56
2019-04-03T22:51:58.771Z,1.62
2019-04-03T22:54:30.531Z,1.77
2019-04-03T22:57:02.173Z,1.98
2019-04-03T22:59:34.250Z,2.06
2019-04-03T23:02:05.807Z,2.07
2019-04-03T23:04:37.365Z,2.07
2019-04-03T23:07:09.129Z,2.06
2019-04-03T23:09:40.577Z,2.01
2019-04-03T23:12:12.340Z,1.94
2019-04-03T23:14:43.711Z,1.88
2019-04-03T23:17:15.238Z,1.86
2019-04-03T23:19:46.896Z,1.69
2019-04-03T23:22:18.784Z,1.62
2019-04-03T23:24:50.527Z,1.60
2019-04-03T23:27:22.076Z,1.58
2019-04-03T23:29:53.841Z,1.69
2019-04-03T23:32:25.395Z,1.74
2019-04-03T23:34:57.052Z,1.69
2019-04-03T23:37:28.917Z,1.69
2019-04-03T23:40:01.036Z,1.69
2019-04-03T23:42:34.092Z,1.76
2019-04-03T23:45:06.960Z,1.84
2019-04-03T23:47:38.613Z,1.76
2019-04-03T23:50:10.275Z,1.72
2019-04-03T23:52:41.725Z,1.72
2019-04-03T23:55:13.284Z,1.80
2019-04-03T23:57:45.043Z,1.84
